sensor_id;sensor_type;location;lat;lon;timestamp;temperature;humidity
17146;DHT22;8688;54.444;18.444;2024-02-26T00:01:54;3.00;1.00
17146;DHT22;8688;54.444;18.444;2024-02-26T00:04:23;3.10;1.00
17146;DHT22;8688;54.444;18.444;2024-02-26T00:06:55;3.10;1.00
17146;DHT22;8688;54.444;18.444;2024-02-26T00:09:24;3.20;1.00
17146;DHT22;8688;54.444;18.444;2024-02-26T00:11:52;3.20;1.00
17146;DHT22;8688;54.444;18.444;2024-02-26T00:14:21;3.30;1.00
17146;DHT22;8688;54.444;18.444;2024-02-26T00:16:49;3.30;1.00
17146;DHT22;8688;54.444;18.444;2024-02-26T00:19:17;3.30;1.00
17146;DHT22;8688;54.444;18.444;2024-02-26T00:21:48;3.40;1.00
17146;DHT22;8688;54.444;18.444;2024-02-26T00:24:20;3.40;1.00
17146;DHT22;8688;54.444;18.444;2024-02-26T00:26:49;3.50;1.00
17146;DHT22;8688;54.444;18.444;2024-02-26T00:29:20;3.50;1.00
17146;DHT22;8688;54.444;18.444;2024-02-26T00:31:49;3.50;1.00
17146;DHT22;8688;54.444;18.444;2024-02-26T00:34:18;3.60;1.00
17146;DHT22;8688;54.444;18.444;2024-02-26T00:36:47;3.60;1.00
17146;DHT22;8688;54.444;18.444;2024-02-26T00:39:17;3.60;1.00
17146;DHT22;8688;54.444;18.444;2024-02-26T00:41:45;3.60;1.00
17146;DHT22;8688;54.444;18.444;2024-02-26T00:44:19;3.70;1.00
17146;DHT22;8688;54.444;18.444;2024-02-26T00:46:47;3.70;1.00
17146;DHT22;8688;54.444;18.444;2024-02-26T00:49:17;3.70;1.00
17146;DHT22;8688;54.444;18.444;2024-02-26T00:51:45;3.60;1.00
17146;DHT22;8688;54.444;18.444;2024-02-26T00:54:12;3.60;1.00
17146;DHT22;8688;54.444;18.444;2024-02-26T00:56:42;3.70;1.00
17146;DHT22;8688;54.444;18.444;2024-02-26T00:59:10;3.70;1.00
17146;DHT22;8688;54.444;18.444;2024-02-26T01:01:38;3.70;1.00
17146;DHT22;8688;54.444;18.444;2024-02-26T01:04:07;3.70;1.00
17146;DHT22;8688;54.444;18.444;2024-02-26T01:06:36;3.70;1.00
17146;DHT22;8688;54.444;18.444;2024-02-26T01:09:04;3.70;1.00
17146;DHT22;8688;54.444;18.444;2024-02-26T01:11:34;3.80;1.00
17146;DHT22;8688;54.444;18.444;2024-02-26T01:14:03;3.80;1.00
17146;DHT22;8688;54.444;18.444;2024-02-26T01:16:31;3.90;1.00
17146;DHT22;8688;54.444;18.444;2024-02-26T01:18:59;3.90;1.00
17146;DHT22;8688;54.444;18.444;2024-02-26T01:21:30;4.00;1.00
17146;DHT22;8688;54.444;18.444;2024-02-26T01:23:58;3.90;1.00
17146;DHT22;8688;54.444;18.444;2024-02-26T01:26:26;4.00;1.00
17146;DHT22;8688;54.444;18.444;2024-02-26T01:28:54;3.90;1.00
17146;DHT22;8688;54.444;18.444;2024-02-26T01:31:25;3.90;1.00
17146;DHT22;8688;54.444;18.444;2024-02-26T01:33:53;3.80;1.00
17146;DHT22;8688;54.444;18.444;2024-02-26T01:36:21;3.80;1.00
17146;DHT22;8688;54.444;18.444;2024-02-26T01:38:50;3.70;1.00
17146;DHT22;8688;54.444;18.444;2024-02-26T01:41:17;3.70;1.00
17146;DHT22;8688;54.444;18.444;2024-02-26T01:43:45;3.60;1.00
17146;DHT22;8688;54.444;18.444;2024-02-26T01:46:14;3.50;1.00
17146;DHT22;8688;54.444;18.444;2024-02-26T01:48:44;3.50;1.00
17146;DHT22;8688;54.444;18.444;2024-02-26T01:51:14;3.40;1.00
17146;DHT22;8688;54.444;18.444;2024-02-26T01:53:44;3.40;1.00
17146;DHT22;8688;54.444;18.444;2024-02-26T01:56:13;3.30;1.00
17146;DHT22;8688;54.444;18.444;2024-02-26T01:58:43;3.20;1.00
17146;DHT22;8688;54.444;18.444;2024-02-26T02:01:12;3.10;1.00
17146;DHT22;8688;54.444;18.444;2024-02-26T02:03:40;3.10;1.00
17146;DHT22;8688;54.444;18.444;2024-02-26T02:06:12;3.00;1.00
17146;DHT22;8688;54.444;18.444;2024-02-26T02:08:42;3.00;1.00
17146;DHT22;8688;54.444;18.444;2024-02-26T02:11:17;3.00;1.00
17146;DHT22;8688;54.444;18.444;2024-02-26T02:13:45;3.10;1.00
17146;DHT22;8688;54.444;18.444;2024-02-26T02:16:14;3.00;1.00
17146;DHT22;8688;54.444;18.444;2024-02-26T02:18:43;3.00;1.00
17146;DHT22;8688;54.444;18.444;2024-02-26T02:21:16;3.00;1.00
17146;DHT22;8688;54.444;18.444;2024-02-26T02:23:47;2.90;1.00
17146;DHT22;8688;54.444;18.444;2024-02-26T02:26:18;2.90;1.00
17146;DHT22;8688;54.444;18.444;2024-02-26T02:28:48;2.90;1.00
17146;DHT22;8688;54.444;18.444;2024-02-26T02:31:16;2.90;1.00
17146;DHT22;8688;54.444;18.444;2024-02-26T02:33:45;2.80;1.00
17146;DHT22;8688;54.444;18.444;2024-02-26T02:36:13;2.80;1.00
17146;DHT22;8688;54.444;18.444;2024-02-26T02:38:50;2.70;1.00
17146;DHT22;8688;54.444;18.444;2024-02-26T02:41:19;2.70;1.00
17146;DHT22;8688;54.444;18.444;2024-02-26T02:44:02;2.60;1.00
17146;DHT22;8688;54.444;18.444;2024-02-26T02:46:32;2.60;1.00
17146;DHT22;8688;54.444;18.444;2024-02-26T02:49:07;2.60;1.00
17146;DHT22;8688;54.444;18.444;2024-02-26T02:51:41;2.50;1.00
17146;DHT22;8688;54.444;18.444;2024-02-26T02:54:11;2.40;1.00
17146;DHT22;8688;54.444;18.444;2024-02-26T02:56:39;2.30;1.00
17146;DHT22;8688;54.444;18.444;2024-02-26T02:59:08;2.20;1.00
17146;DHT22;8688;54.444;18.444;2024-02-26T03:01:36;2.20;1.00
17146;DHT22;8688;54.444;18.444;2024-02-26T03:04:04;2.20;1.00
17146;DHT22;8688;54.444;18.444;2024-02-26T03:06:32;2.10;1.00
17146;DHT22;8688;54.444;18.444;2024-02-26T03:09:00;2.20;1.00
17146;DHT22;8688;54.444;18.444;2024-02-26T03:11:30;2.20;1.00
17146;DHT22;8688;54.444;18.444;2024-02-26T03:13:58;2.20;1.00
17146;DHT22;8688;54.444;18.444;2024-02-26T03:16:26;2.10;1.00
17146;DHT22;8688;54.444;18.444;2024-02-26T03:18:54;2.10;1.00
17146;DHT22;8688;54.444;18.444;2024-02-26T03:21:22;2.00;1.00
17146;DHT22;8688;54.444;18.444;2024-02-26T03:23:50;2.00;1.00
17146;DHT22;8688;54.444;18.444;2024-02-26T03:26:18;2.00;1.00
17146;DHT22;8688;54.444;18.444;2024-02-26T03:28:48;1.90;1.00
17146;DHT22;8688;54.444;18.444;2024-02-26T03:31:16;1.80;1.00
17146;DHT22;8688;54.444;18.444;2024-02-26T03:33:44;1.70;1.00
17146;DHT22;8688;54.444;18.444;2024-02-26T03:36:12;1.70;1.00
17146;DHT22;8688;54.444;18.444;2024-02-26T03:38:42;1.70;1.00
17146;DHT22;8688;54.444;18.444;2024-02-26T03:41:10;1.60;1.00
17146;DHT22;8688;54.444;18.444;2024-02-26T03:43:38;1.60;1.00
17146;DHT22;8688;54.444;18.444;2024-02-26T03:46:09;1.60;1.00
17146;DHT22;8688;54.444;18.444;2024-02-26T03:48:40;1.60;1.00
17146;DHT22;8688;54.444;18.444;2024-02-26T03:51:11;1.50;1.00
17146;DHT22;8688;54.444;18.444;2024-02-26T03:53:47;1.50;1.00
17146;DHT22;8688;54.444;18.444;2024-02-26T03:56:15;1.50;1.00
17146;DHT22;8688;54.444;18.444;2024-02-26T03:58:49;1.50;1.00
17146;DHT22;8688;54.444;18.444;2024-02-26T04:01:20;1.50;1.00
17146;DHT22;8688;54.444;18.444;2024-02-26T04:03:48;1.50;1.00
17146;DHT22;8688;54.444;18.444;2024-02-26T04:06:17;1.50;1.00
17146;DHT22;8688;54.444;18.444;2024-02-26T04:08:47;1.50;1.00
17146;DHT22;8688;54.444;18.444;2024-02-26T04:11:20;1.40;1.00
17146;DHT22;8688;54.444;18.444;2024-02-26T04:13:50;1.40;1.00
17146;DHT22;8688;54.444;18.444;2024-02-26T04:16:19;1.40;1.00
17146;DHT22;8688;54.444;18.444;2024-02-26T04:18:49;1.40;1.00
17146;DHT22;8688;54.444;18.444;2024-02-26T04:21:17;1.30;1.00
17146;DHT22;8688;54.444;18.444;2024-02-26T04:23:50;1.30;1.00
17146;DHT22;8688;54.444;18.444;2024-02-26T04:26:21;1.30;1.00
17146;DHT22;8688;54.444;18.444;2024-02-26T04:28:50;1.30;1.00
17146;DHT22;8688;54.444;18.444;2024-02-26T04:31:21;1.30;1.00
17146;DHT22;8688;54.444;18.444;2024-02-26T04:33:49;1.30;1.00
17146;DHT22;8688;54.444;18.444;2024-02-26T04:36:17;1.30;1.00
17146;DHT22;8688;54.444;18.444;2024-02-26T04:38:47;1.20;1.00
17146;DHT22;8688;54.444;18.444;2024-02-26T04:41:15;1.20;1.00
17146;DHT22;8688;54.444;18.444;2024-02-26T04:43:45;1.10;1.00
17146;DHT22;8688;54.444;18.444;2024-02-26T04:46:14;1.10;1.00
17146;DHT22;8688;54.444;18.444;2024-02-26T04:48:48;1.10;1.00
17146;DHT22;8688;54.444;18.444;2024-02-26T04:51:25;1.10;1.00
17146;DHT22;8688;54.444;18.444;2024-02-26T04:53:54;1.00;1.00
17146;DHT22;8688;54.444;18.444;2024-02-26T04:56:26;1.10;1.00
17146;DHT22;8688;54.444;18.444;2024-02-26T04:58:57;1.00;1.00
17146;DHT22;8688;54.444;18.444;2024-02-26T05:01:25;1.00;1.00
17146;DHT22;8688;54.444;18.444;2024-02-26T05:03:57;1.00;1.00
17146;DHT22;8688;54.444;18.444;2024-02-26T05:06:25;1.00;1.00
17146;DHT22;8688;54.444;18.444;2024-02-26T05:08:53;0.90;1.00
17146;DHT22;8688;54.444;18.444;2024-02-26T05:11:31;0.90;1.00
17146;DHT22;8688;54.444;18.444;2024-02-26T05:13:59;1.00;1.00
17146;DHT22;8688;54.444;18.444;2024-02-26T05:16:29;0.90;1.00
17146;DHT22;8688;54.444;18.444;2024-02-26T05:18:59;0.90;1.00
17146;DHT22;8688;54.444;18.444;2024-02-26T05:21:27;0.90;1.00
17146;DHT22;8688;54.444;18.444;2024-02-26T05:23:56;0.90;1.00
17146;DHT22;8688;54.444;18.444;2024-02-26T05:26:26;0.90;1.00
17146;DHT22;8688;54.444;18.444;2024-02-26T05:28:56;0.80;1.00
17146;DHT22;8688;54.444;18.444;2024-02-26T05:31:26;0.80;1.00
17146;DHT22;8688;54.444;18.444;2024-02-26T05:33:55;0.80;1.00
17146;DHT22;8688;54.444;18.444;2024-02-26T05:36:24;0.80;1.00
17146;DHT22;8688;54.444;18.444;2024-02-26T05:38:52;0.70;1.00
17146;DHT22;8688;54.444;18.444;2024-02-26T05:41:20;0.70;1.00
17146;DHT22;8688;54.444;18.444;2024-02-26T05:43:49;0.60;1.00
17146;DHT22;8688;54.444;18.444;2024-02-26T05:46:17;0.60;1.00
17146;DHT22;8688;54.444;18.444;2024-02-26T05:48:51;0.50;1.00
17146;DHT22;8688;54.444;18.444;2024-02-26T05:51:21;0.50;1.00
17146;DHT22;8688;54.444;18.444;2024-02-26T05:53:50;0.50;1.00
17146;DHT22;8688;54.444;18.444;2024-02-26T05:56:21;0.50;1.00
17146;DHT22;8688;54.444;18.444;2024-02-26T05:58:51;0.60;1.00
17146;DHT22;8688;54.444;18.444;2024-02-26T06:01:20;0.60;1.00
17146;DHT22;8688;54.444;18.444;2024-02-26T06:03:48;0.60;1.00
17146;DHT22;8688;54.444;18.444;2024-02-26T06:06:20;0.60;1.00
17146;DHT22;8688;54.444;18.444;2024-02-26T06:08:51;0.70;1.00
17146;DHT22;8688;54.444;18.444;2024-02-26T06:11:19;0.70;1.00
17146;DHT22;8688;54.444;18.444;2024-02-26T06:13:49;0.70;1.00
17146;DHT22;8688;54.444;18.444;2024-02-26T06:16:17;0.70;1.00
17146;DHT22;8688;54.444;18.444;2024-02-26T06:18:54;0.80;1.00
17146;DHT22;8688;54.444;18.444;2024-02-26T06:21:25;0.80;1.00
17146;DHT22;8688;54.444;18.444;2024-02-26T06:23:55;0.80;1.00
17146;DHT22;8688;54.444;18.444;2024-02-26T06:26:24;0.90;1.00
17146;DHT22;8688;54.444;18.444;2024-02-26T06:28:54;0.90;1.00
17146;DHT22;8688;54.444;18.444;2024-02-26T06:31:23;0.90;1.00
17146;DHT22;8688;54.444;18.444;2024-02-26T06:33:53;0.90;1.00
17146;DHT22;8688;54.444;18.444;2024-02-26T06:36:22;0.90;1.00
17146;DHT22;8688;54.444;18.444;2024-02-26T06:38:50;0.90;1.00
17146;DHT22;8688;54.444;18.444;2024-02-26T06:41:21;0.90;1.00
17146;DHT22;8688;54.444;18.444;2024-02-26T06:43:54;1.00;1.00
17146;DHT22;8688;54.444;18.444;2024-02-26T06:46:22;1.00;1.00
17146;DHT22;8688;54.444;18.444;2024-02-26T06:48:50;1.10;1.00
17146;DHT22;8688;54.444;18.444;2024-02-26T06:51:20;1.10;1.00
17146;DHT22;8688;54.444;18.444;2024-02-26T06:53:49;1.10;1.00
17146;DHT22;8688;54.444;18.444;2024-02-26T06:56:18;1.20;1.00
17146;DHT22;8688;54.444;18.444;2024-02-26T06:58:47;1.20;1.00
17146;DHT22;8688;54.444;18.444;2024-02-26T07:01:16;1.20;1.00
17146;DHT22;8688;54.444;18.444;2024-02-26T07:03:44;1.30;1.00
17146;DHT22;8688;54.444;18.444;2024-02-26T07:06:14;1.40;1.00
17146;DHT22;8688;54.444;18.444;2024-02-26T07:08:42;1.40;1.00
17146;DHT22;8688;54.444;18.444;2024-02-26T07:11:11;1.40;1.00
17146;DHT22;8688;54.444;18.444;2024-02-26T07:13:39;1.40;1.00
17146;DHT22;8688;54.444;18.444;2024-02-26T07:16:09;1.50;1.00
17146;DHT22;8688;54.444;18.444;2024-02-26T07:18:38;1.60;1.00
17146;DHT22;8688;54.444;18.444;2024-02-26T07:21:06;1.60;1.00
17146;DHT22;8688;54.444;18.444;2024-02-26T07:23:37;1.70;1.00
17146;DHT22;8688;54.444;18.444;2024-02-26T07:26:06;1.70;1.00
17146;DHT22;8688;54.444;18.444;2024-02-26T07:28:34;1.80;1.00
17146;DHT22;8688;54.444;18.444;2024-02-26T07:31:02;1.90;1.00
17146;DHT22;8688;54.444;18.444;2024-02-26T07:33:32;1.90;1.00
17146;DHT22;8688;54.444;18.444;2024-02-26T07:36:00;2.00;1.00
17146;DHT22;8688;54.444;18.444;2024-02-26T07:38:28;2.10;1.00
17146;DHT22;8688;54.444;18.444;2024-02-26T07:40:56;2.20;1.00
17146;DHT22;8688;54.444;18.444;2024-02-26T07:43:24;2.30;1.00
17146;DHT22;8688;54.444;18.444;2024-02-26T07:45:52;2.30;1.00
17146;DHT22;8688;54.444;18.444;2024-02-26T07:48:20;2.40;1.00
17146;DHT22;8688;54.444;18.444;2024-02-26T07:50:50;2.40;1.00
17146;DHT22;8688;54.444;18.444;2024-02-26T07:53:18;2.50;1.00
17146;DHT22;8688;54.444;18.444;2024-02-26T07:55:46;2.60;1.00
17146;DHT22;8688;54.444;18.444;2024-02-26T07:58:14;2.70;1.00
17146;DHT22;8688;54.444;18.444;2024-02-26T08:00:43;2.80;1.00
17146;DHT22;8688;54.444;18.444;2024-02-26T08:03:15;2.90;1.00
17146;DHT22;8688;54.444;18.444;2024-02-26T08:05:43;3.00;1.00
17146;DHT22;8688;54.444;18.444;2024-02-26T08:08:14;3.10;1.00
17146;DHT22;8688;54.444;18.444;2024-02-26T08:10:44;3.20;1.00
17146;DHT22;8688;54.444;18.444;2024-02-26T08:13:12;3.30;1.00
17146;DHT22;8688;54.444;18.444;2024-02-26T08:15:41;3.40;1.00
17146;DHT22;8688;54.444;18.444;2024-02-26T08:18:09;3.50;1.00
17146;DHT22;8688;54.444;18.444;2024-02-26T08:20:39;3.60;1.00
17146;DHT22;8688;54.444;18.444;2024-02-26T08:23:09;3.70;1.00
17146;DHT22;8688;54.444;18.444;2024-02-26T08:25:39;3.80;1.00
17146;DHT22;8688;54.444;18.444;2024-02-26T08:28:08;3.90;1.00
17146;DHT22;8688;54.444;18.444;2024-02-26T08:30:56;3.90;1.00
17146;DHT22;8688;54.444;18.444;2024-02-26T08:33:27;4.10;1.00
17146;DHT22;8688;54.444;18.444;2024-02-26T08:35:56;4.20;1.00
17146;DHT22;8688;54.444;18.444;2024-02-26T08:38:25;4.30;1.00
17146;DHT22;8688;54.444;18.444;2024-02-26T08:40:56;4.40;1.00
17146;DHT22;8688;54.444;18.444;2024-02-26T08:43:24;4.60;1.00
17146;DHT22;8688;54.444;18.444;2024-02-26T08:45:53;4.70;1.00
17146;DHT22;8688;54.444;18.444;2024-02-26T08:48:23;4.80;1.00
17146;DHT22;8688;54.444;18.444;2024-02-26T08:50:54;4.90;1.00
17146;DHT22;8688;54.444;18.444;2024-02-26T08:53:22;4.90;1.00
17146;DHT22;8688;54.444;18.444;2024-02-26T08:55:54;5.00;1.00
17146;DHT22;8688;54.444;18.444;2024-02-26T08:58:26;5.10;1.00
17146;DHT22;8688;54.444;18.444;2024-02-26T09:01:00;5.20;1.00
17146;DHT22;8688;54.444;18.444;2024-02-26T09:03:29;5.30;1.00
17146;DHT22;8688;54.444;18.444;2024-02-26T09:05:59;5.40;1.00
17146;DHT22;8688;54.444;18.444;2024-02-26T09:08:29;5.50;1.00
17146;DHT22;8688;54.444;18.444;2024-02-26T09:10:59;5.60;1.00
17146;DHT22;8688;54.444;18.444;2024-02-26T09:13:29;5.70;1.00
17146;DHT22;8688;54.444;18.444;2024-02-26T09:16:01;5.80;1.00
17146;DHT22;8688;54.444;18.444;2024-02-26T09:18:35;5.90;1.00
17146;DHT22;8688;54.444;18.444;2024-02-26T09:21:05;6.00;1.00
17146;DHT22;8688;54.444;18.444;2024-02-26T09:23:37;6.10;1.00
17146;DHT22;8688;54.444;18.444;2024-02-26T09:26:12;6.30;1.00
17146;DHT22;8688;54.444;18.444;2024-02-26T09:28:43;6.30;1.00
17146;DHT22;8688;54.444;18.444;2024-02-26T09:31:12;6.40;1.00
17146;DHT22;8688;54.444;18.444;2024-02-26T09:33:42;6.60;1.00
17146;DHT22;8688;54.444;18.444;2024-02-26T09:36:11;6.70;1.00
17146;DHT22;8688;54.444;18.444;2024-02-26T09:38:41;6.80;1.00
17146;DHT22;8688;54.444;18.444;2024-02-26T09:41:14;6.90;1.00
17146;DHT22;8688;54.444;18.444;2024-02-26T09:43:45;7.00;1.00
17146;DHT22;8688;54.444;18.444;2024-02-26T09:46:22;7.10;1.00
17146;DHT22;8688;54.444;18.444;2024-02-26T09:49:13;7.30;1.00
17146;DHT22;8688;54.444;18.444;2024-02-26T09:51:48;7.40;1.00
17146;DHT22;8688;54.444;18.444;2024-02-26T09:58:09;7.60;1.00
17146;DHT22;8688;54.444;18.444;2024-02-26T10:03:39;7.90;1.00
17146;DHT22;8688;54.444;18.444;2024-02-26T10:06:11;8.00;1.00
17146;DHT22;8688;54.444;18.444;2024-02-26T10:08:45;8.10;99.90
17146;DHT22;8688;54.444;18.444;2024-02-26T10:11:30;8.10;99.90
17146;DHT22;8688;54.444;18.444;2024-02-26T10:14:12;8.10;7.30
17146;DHT22;8688;54.444;18.444;2024-02-26T10:16:47;8.10;1.00
17146;DHT22;8688;54.444;18.444;2024-02-26T10:19:30;8.10;1.00
17146;DHT22;8688;54.444;18.444;2024-02-26T10:22:03;8.20;1.00
17146;DHT22;8688;54.444;18.444;2024-02-26T10:24:46;8.20;1.00
17146;DHT22;8688;54.444;18.444;2024-02-26T10:27:16;8.30;99.90
17146;DHT22;8688;54.444;18.444;2024-02-26T10:29:47;8.40;99.90
17146;DHT22;8688;54.444;18.444;2024-02-26T10:32:18;8.40;99.90
17146;DHT22;8688;54.444;18.444;2024-02-26T10:35:02;8.40;43.40
17146;DHT22;8688;54.444;18.444;2024-02-26T10:37:42;8.50;1.00
17146;DHT22;8688;54.444;18.444;2024-02-26T10:40:17;8.60;1.00
17146;DHT22;8688;54.444;18.444;2024-02-26T10:42:46;8.60;99.90
17146;DHT22;8688;54.444;18.444;2024-02-26T10:45:14;8.70;1.00
17146;DHT22;8688;54.444;18.444;2024-02-26T10:47:44;8.90;1.00
17146;DHT22;8688;54.444;18.444;2024-02-26T10:50:14;8.90;1.00
17146;DHT22;8688;54.444;18.444;2024-02-26T10:52:44;8.90;1.00
17146;DHT22;8688;54.444;18.444;2024-02-26T10:55:18;9.00;1.00
17146;DHT22;8688;54.444;18.444;2024-02-26T10:57:48;9.10;99.90
17146;DHT22;8688;54.444;18.444;2024-02-26T11:00:21;9.20;1.00
17146;DHT22;8688;54.444;18.444;2024-02-26T11:03:01;9.30;1.00
17146;DHT22;8688;54.444;18.444;2024-02-26T11:05:39;9.30;1.00
17146;DHT22;8688;54.444;18.444;2024-02-26T11:08:19;9.40;99.90
17146;DHT22;8688;54.444;18.444;2024-02-26T11:10:48;9.50;99.90
17146;DHT22;8688;54.444;18.444;2024-02-26T11:13:19;9.60;1.00
17146;DHT22;8688;54.444;18.444;2024-02-26T11:15:47;9.70;99.90
17146;DHT22;8688;54.444;18.444;2024-02-26T11:18:19;9.70;1.00
17146;DHT22;8688;54.444;18.444;2024-02-26T11:24:10;9.90;1.00
17146;DHT22;8688;54.444;18.444;2024-02-26T11:26:42;9.90;99.90
17146;DHT22;8688;54.444;18.444;2024-02-26T11:29:15;10.00;99.90
17146;DHT22;8688;54.444;18.444;2024-02-26T11:31:44;10.00;18.90
17146;DHT22;8688;54.444;18.444;2024-02-26T11:34:13;10.00;1.00
17146;DHT22;8688;54.444;18.444;2024-02-26T11:36:42;10.10;1.00
17146;DHT22;8688;54.444;18.444;2024-02-26T11:39:15;10.00;1.00
17146;DHT22;8688;54.444;18.444;2024-02-26T11:41:43;10.00;22.60
17146;DHT22;8688;54.444;18.444;2024-02-26T11:44:11;10.10;99.90
17146;DHT22;8688;54.444;18.444;2024-02-26T11:46:41;10.10;99.90
17146;DHT22;8688;54.444;18.444;2024-02-26T11:49:30;10.10;95.30
17146;DHT22;8688;54.444;18.444;2024-02-26T11:52:02;10.20;99.90
17146;DHT22;8688;54.444;18.444;2024-02-26T11:54:45;10.20;99.90
17146;DHT22;8688;54.444;18.444;2024-02-26T11:57:22;10.30;99.90
17146;DHT22;8688;54.444;18.444;2024-02-26T11:59:50;10.40;55.00
17146;DHT22;8688;54.444;18.444;2024-02-26T12:05:31;10.30;9.90
17146;DHT22;8688;54.444;18.444;2024-02-26T12:08:06;10.30;31.20
17146;DHT22;8688;54.444;18.444;2024-02-26T12:10:36;10.40;99.90
17146;DHT22;8688;54.444;18.444;2024-02-26T12:13:10;10.60;1.00
17146;DHT22;8688;54.444;18.444;2024-02-26T12:15:41;10.70;99.90
17146;DHT22;8688;54.444;18.444;2024-02-26T12:18:10;10.80;1.00
17146;DHT22;8688;54.444;18.444;2024-02-26T12:20:39;10.60;1.00
17146;DHT22;8688;54.444;18.444;2024-02-26T12:23:14;10.50;8.90
17146;DHT22;8688;54.444;18.444;2024-02-26T12:25:44;10.50;6.40
17146;DHT22;8688;54.444;18.444;2024-02-26T12:28:20;10.60;1.00
17146;DHT22;8688;54.444;18.444;2024-02-26T12:30:48;10.60;1.00
17146;DHT22;8688;54.444;18.444;2024-02-26T12:33:16;10.60;1.00
17146;DHT22;8688;54.444;18.444;2024-02-26T12:35:44;10.50;1.00
17146;DHT22;8688;54.444;18.444;2024-02-26T12:38:16;10.40;1.00
17146;DHT22;8688;54.444;18.444;2024-02-26T12:40:48;10.40;74.50
17146;DHT22;8688;54.444;18.444;2024-02-26T12:43:22;10.40;31.70
17146;DHT22;8688;54.444;18.444;2024-02-26T12:46:18;10.50;60.50
17146;DHT22;8688;54.444;18.444;2024-02-26T12:48:49;10.50;1.90
17146;DHT22;8688;54.444;18.444;2024-02-26T12:51:40;10.60;94.80
17146;DHT22;8688;54.444;18.444;2024-02-26T12:54:17;10.50;19.80
17146;DHT22;8688;54.444;18.444;2024-02-26T12:56:48;10.50;99.90
17146;DHT22;8688;54.444;18.444;2024-02-26T12:59:40;10.50;92.80
17146;DHT22;8688;54.444;18.444;2024-02-26T13:02:11;10.40;99.90
17146;DHT22;8688;54.444;18.444;2024-02-26T13:04:42;10.40;99.90
17146;DHT22;8688;54.444;18.444;2024-02-26T13:07:10;10.50;99.90
17146;DHT22;8688;54.444;18.444;2024-02-26T13:09:40;10.60;99.90
17146;DHT22;8688;54.444;18.444;2024-02-26T13:12:09;10.70;99.90
17146;DHT22;8688;54.444;18.444;2024-02-26T13:14:36;10.60;99.90
17146;DHT22;8688;54.444;18.444;2024-02-26T13:17:04;10.60;99.90
17146;DHT22;8688;54.444;18.444;2024-02-26T13:19:54;10.50;99.90
17146;DHT22;8688;54.444;18.444;2024-02-26T13:22:25;10.40;99.90
17146;DHT22;8688;54.444;18.444;2024-02-26T13:24:59;10.30;99.90
17146;DHT22;8688;54.444;18.444;2024-02-26T13:27:29;10.30;99.90
17146;DHT22;8688;54.444;18.444;2024-02-26T13:30:08;10.20;99.90
17146;DHT22;8688;54.444;18.444;2024-02-26T13:32:40;10.00;99.90
17146;DHT22;8688;54.444;18.444;2024-02-26T13:35:11;9.90;99.90
17146;DHT22;8688;54.444;18.444;2024-02-26T13:37:44;9.80;1.00
17146;DHT22;8688;54.444;18.444;2024-02-26T13:40:14;9.80;99.90
17146;DHT22;8688;54.444;18.444;2024-02-26T13:42:43;9.70;99.90
17146;DHT22;8688;54.444;18.444;2024-02-26T13:45:14;9.70;99.90
17146;DHT22;8688;54.444;18.444;2024-02-26T13:47:42;9.60;99.90
17146;DHT22;8688;54.444;18.444;2024-02-26T13:50:10;9.50;1.00
17146;DHT22;8688;54.444;18.444;2024-02-26T13:52:38;9.40;1.00
17146;DHT22;8688;54.444;18.444;2024-02-26T13:55:09;9.20;1.00
17146;DHT22;8688;54.444;18.444;2024-02-26T13:57:39;9.10;92.30
17146;DHT22;8688;54.444;18.444;2024-02-26T14:00:08;9.10;1.00
17146;DHT22;8688;54.444;18.444;2024-02-26T14:02:40;9.00;1.00
17146;DHT22;8688;54.444;18.444;2024-02-26T14:05:09;9.10;99.90
17146;DHT22;8688;54.444;18.444;2024-02-26T14:07:37;9.00;1.00
17146;DHT22;8688;54.444;18.444;2024-02-26T14:10:06;9.00;71.60
17146;DHT22;8688;54.444;18.444;2024-02-26T14:12:35;9.00;1.00
17146;DHT22;8688;54.444;18.444;2024-02-26T14:15:06;9.00;1.00
17146;DHT22;8688;54.444;18.444;2024-02-26T14:17:35;8.90;1.00
17146;DHT22;8688;54.444;18.444;2024-02-26T14:20:04;8.80;1.00
17146;DHT22;8688;54.444;18.444;2024-02-26T14:22:35;8.80;1.00
17146;DHT22;8688;54.444;18.444;2024-02-26T14:25:04;8.70;6.60
17146;DHT22;8688;54.444;18.444;2024-02-26T14:27:32;8.70;99.90
17146;DHT22;8688;54.444;18.444;2024-02-26T14:30:04;8.60;65.50
17146;DHT22;8688;54.444;18.444;2024-02-26T14:32:33;8.60;99.90
17146;DHT22;8688;54.444;18.444;2024-02-26T14:35:05;8.50;1.00
17146;DHT22;8688;54.444;18.444;2024-02-26T14:37:35;8.50;99.90
17146;DHT22;8688;54.444;18.444;2024-02-26T14:40:04;8.40;1.00
17146;DHT22;8688;54.444;18.444;2024-02-26T14:42:35;8.30;1.00
17146;DHT22;8688;54.444;18.444;2024-02-26T14:45:06;8.20;1.00
17146;DHT22;8688;54.444;18.444;2024-02-26T14:47:35;8.10;99.90
17146;DHT22;8688;54.444;18.444;2024-02-26T14:50:06;8.00;99.90
17146;DHT22;8688;54.444;18.444;2024-02-26T14:52:34;7.90;1.00
17146;DHT22;8688;54.444;18.444;2024-02-26T14:55:04;7.80;10.00
17146;DHT22;8688;54.444;18.444;2024-02-26T14:57:32;7.80;99.90
17146;DHT22;8688;54.444;18.444;2024-02-26T15:00:01;7.70;99.90
17146;DHT22;8688;54.444;18.444;2024-02-26T15:02:35;7.70;99.90
17146;DHT22;8688;54.444;18.444;2024-02-26T15:05:04;7.70;99.90
17146;DHT22;8688;54.444;18.444;2024-02-26T15:07:35;7.60;99.90
17146;DHT22;8688;54.444;18.444;2024-02-26T15:10:07;7.60;99.90
17146;DHT22;8688;54.444;18.444;2024-02-26T15:12:35;7.60;99.90
17146;DHT22;8688;54.444;18.444;2024-02-26T15:15:04;7.50;99.90
17146;DHT22;8688;54.444;18.444;2024-02-26T15:17:34;7.40;99.90
17146;DHT22;8688;54.444;18.444;2024-02-26T15:20:07;7.40;1.00
17146;DHT22;8688;54.444;18.444;2024-02-26T15:22:37;7.30;1.00
17146;DHT22;8688;54.444;18.444;2024-02-26T15:25:06;7.20;1.00
17146;DHT22;8688;54.444;18.444;2024-02-26T15:27:34;7.20;1.00
17146;DHT22;8688;54.444;18.444;2024-02-26T15:30:03;7.10;1.00
17146;DHT22;8688;54.444;18.444;2024-02-26T15:32:33;7.10;1.00
17146;DHT22;8688;54.444;18.444;2024-02-26T15:35:01;7.00;1.00
17146;DHT22;8688;54.444;18.444;2024-02-26T15:37:29;7.00;1.00
17146;DHT22;8688;54.444;18.444;2024-02-26T15:39:58;6.90;1.00
17146;DHT22;8688;54.444;18.444;2024-02-26T15:42:26;6.90;1.00
17146;DHT22;8688;54.444;18.444;2024-02-26T15:44:54;6.80;1.00
17146;DHT22;8688;54.444;18.444;2024-02-26T15:47:22;6.70;1.00
17146;DHT22;8688;54.444;18.444;2024-02-26T15:49:52;6.70;29.60
17146;DHT22;8688;54.444;18.444;2024-02-26T15:52:20;6.60;98.20
17146;DHT22;8688;54.444;18.444;2024-02-26T15:54:48;6.60;99.90
17146;DHT22;8688;54.444;18.444;2024-02-26T15:57:20;6.50;99.90
17146;DHT22;8688;54.444;18.444;2024-02-26T15:59:49;6.50;94.30
17146;DHT22;8688;54.444;18.444;2024-02-26T16:02:19;6.40;99.90
17146;DHT22;8688;54.444;18.444;2024-02-26T16:04:50;6.30;99.90
17146;DHT22;8688;54.444;18.444;2024-02-26T16:07:23;6.20;1.00
17146;DHT22;8688;54.444;18.444;2024-02-26T16:09:53;6.10;1.00
17146;DHT22;8688;54.444;18.444;2024-02-26T16:12:28;6.00;1.00
17146;DHT22;8688;54.444;18.444;2024-02-26T16:15:06;5.90;1.00
17146;DHT22;8688;54.444;18.444;2024-02-26T16:17:38;5.90;99.90
17146;DHT22;8688;54.444;18.444;2024-02-26T16:20:13;5.90;99.90
17146;DHT22;8688;54.444;18.444;2024-02-26T16:22:44;5.80;99.90
17146;DHT22;8688;54.444;18.444;2024-02-26T16:25:15;5.80;99.90
17146;DHT22;8688;54.444;18.444;2024-02-26T16:27:45;5.80;99.90
17146;DHT22;8688;54.444;18.444;2024-02-26T16:30:18;5.70;99.90
17146;DHT22;8688;54.444;18.444;2024-02-26T16:32:53;5.60;99.90